Terminal Aerodrome Forecast
Issued by NWS

Home | Current Version | Previous Version | Text Only | Print | Product List | Glossary On
Versions: 1 2 3 4 5 6 7 8 9 10 11 12 13
000
FTUS44 KTSA 052326
TAFBVO
TAF
KBVO 052326Z 0600/0624 17008KT P6SM SCT040 SCT250
     FM060100 18006KT P6SM SCT250
     FM061200 18012KT P6SM BKN025
     FM061600 19012G20KT P6SM SCT030 BKN050=

USA.gov is the U.S. government's official web portal to all federal, state and local government web resources and services.